x

Yucatan Basin - 120 Nm Ese Of Cozumel, Mx (42056) Wave Buoy

8:50 - Thu 25th Dec 2014 All times are CST. -6 hours from GMT.

  • Sig Wave height 6.9ft
  • Swell Direction
  • Peak Period 11s
  • Average Period 7s
  • Wind
    16mph, 20mph gusts
  • Sea Temp 82°f
  • Luft Temp 79°f
  • Sea Pressure 1017.1mb
  •  Yucatan Basin - 120 Nm Ese Of Cozumel, Mx
  •  Yucatan Basin - 120 Nm Ese Of Cozumel, Mx

More Historic Weather Station data

Upgrade to MSW Pro to gain access to the past 30 days of data for over 8000 Wavebouys and Weather Stations around the globe.

Join Pro

Comparision Forecast

View Surf forecast
   
Do 12/25 8:50 7ft 11s 7s 16 20 mph 1017.1mb 82f 79f
7:50 7ft 11s 7s 16 20 mph 1016.7mb 82f 79f
6:50 8ft 9s 7s 16 18 mph 1016.1mb 82f 79f
5:50 8ft 11s 7s 16 18 mph 1015.7mb 82f 80f
4:50 8ft 11s 7s 13 18 mph 1015.5mb 82f 79f
3:50 8ft 9s 7s 13 18 mph 1015.3mb 82f 78f
2:50 8ft 10s 7s 18 20 mph 1015.3mb 81f 76f
1:50 8ft 9s 6s 22 27 mph 1015.5mb 81f 77f
12:50 7ft 8s 6s 22 27 mph 1015.6mb 81f 79f
11:50 6.5ft 8s 6s 22 27 mph 1016.4mb 81f 79f
10:50 5ft 8s 5s 22 27 mph 1017mb 81f 79f
9:50 4ft 8s 5s 22 27 mph 1017.5mb 81f 80f
8:50 3.5ft 7s 6s 22 25 mph 1017.3mb 81f 80f
7:50 3.5ft 8s 6s 7 9 mph 1017.3mb 81f 81f
6:50 3.5ft 8s 6s 7
mph
1016.6mb 81f 80f
5:50 3.5ft 8s 6s 4
mph
1015.8mb 81f 80f
4:50 3.5ft 8s 6s 2
mph
1015.3mb 81f 80f
3:50 3.5ft 8s 6s 2 4 mph 1014.8mb 81f 80f
2:50 3.5ft 8s 6s 2
mph
1014.5mb 81f 80f
1:50 4ft 8s 6s 4
mph
1014.3mb 81f 80f
12:50 4ft 8s 6s 7 9 mph 1014.4mb 81f 81f
Mi 12/24 11:50 4ft 7s 6s 7 9 mph 1014.8mb 81f 81f
10:50 4ft 6s 5s 7 9 mph 1014.8mb 81f 81f
9:50 4.5ft 7s 5s 7 9 mph 1014.9mb 81f 81f
8:50 4.5ft 6s 5s 7 9 mph 1014.6mb 81f 81f
7:50 4.5ft 6s 6s 7 9 mph 1014mb 81f 81f
6:50 4.5ft 6s 6s 11
mph
1013mb 81f 81f
5:50 5.5ft 7s 6s 13
mph
1012.2mb 81f 81f
4:50 5ft 7s 5s 13 16 mph 1011.4mb 81f 81f
3:50 5ft 7s 5s 13 16 mph 1010.8mb 81f 82f
2:50 5ft 6s 5s 16 18 mph 1010.4mb 81f 82f
1:50 5.5ft 8s 5s 16 18 mph 1010.2mb 81f 82f
12:50 6ft 6s 5s 18 22 mph 1010.5mb 81f 82f
11:50 6ft 7s 5s 18 20 mph 1011.2mb 81f 82f
10:50 6ft 7s 5s 20 25 mph 1011.8mb 81f 82f
9:50 6.5ft 8s 5s 20 25 mph 1012mb 81f 82f
8:50 6.5ft 8s 5s 22 29 mph 1011.5mb 81f 82f
7:50 7ft 8s 5s 25 29 mph 1010.8mb 81f 82f
6:50 7ft 8s 6s 22 27 mph 1010.3mb 81f 82f
5:50 7ft 7s 5s 22 29 mph 1009.2mb 81f 82f
4:50 7ft 7s 5s 22 27 mph 1008.8mb 81f 82f
3:50 6.5ft 7s 5s 22 27 mph 1008.5mb 81f 82f
2:50 6.5ft 7s 5s 25 29 mph 1008.6mb 81f 82f
1:50 6ft 7s 5s 20 25 mph 1009mb 81f 82f
12:50 6.5ft 7s 5s 20 27 mph 1009.2mb 81f 81f
Di 12/23 11:50 7ft 7s 5s 22 27 mph 1009.1mb 81f 82f
10:50 7ft 7s 5s 25 29 mph 1009.2mb 81f 82f
9:50 7ft 6s 5s 25 29 mph 1009.2mb 81f 82f
8:50 7ft 7s 5s 25 29 mph 1008.7mb 81f 82f
7:50 6.5ft 6s 5s 25 29 mph 1008.3mb 81f 82f
6:50 6.5ft 6s 5s 25 29 mph 1007.7mb 81f 82f
5:50 6ft 6s 5s 27 34 mph 1007mb 81f 82f
4:50 6ft 7s 5s 25 29 mph 1007.2mb 81f 82f
3:50 5.5ft 6s 5s 25 27 mph 1007mb 81f 82f
2:50 6ft 5s 5s 20 25 mph 1007.6mb 81f 82f
1:50 5ft 5s 5s 22 27 mph 1007.9mb 81f 82f
12:50 5ft 5s 5s 22 27 mph 1008.6mb 81f 82f
11:50 5ft 7s 5s 22 27 mph 1009.7mb 81f 82f
10:50 5ft 6s 5s 22 27 mph 1010.4mb 81f 82f
9:50 5ft 6s 5s 20 25 mph 1010.8mb 81f 82f
8:50 5ft 6s 5s 22 27 mph 1010.6mb 81f 81f
7:50 4.5ft 6s 5s 22 27 mph 1010.1mb 81f 81f
6:50 5ft 6s 5s 20 25 mph 1009.7mb 80f 81f
5:50 4.5ft 5s 5s 20 22 mph 1009.2mb 80f 80f
4:50 4.5ft 5s 4s 20 25 mph 1009mb 80f 81f
3:50 4.5ft 6s 5s 18 22 mph 1009mb 80f 81f
2:50 4.5ft 5s 4s 18 22 mph 1009.3mb 80f 81f
1:50 4.5ft 6s 4s 20 22 mph 1009.5mb 81f 81f
12:50 4ft 5s 4s 20 25 mph 1010.1mb 81f 81f
Mo 12/22 11:50 4ft 5s 4s 20 22 mph 1010.8mb 81f 81f
10:50 4ft 5s 4s 20 22 mph 1011.3mb 81f 81f
9:50 4.5ft 5s 4s 18 20 mph 1011.7mb 81f 81f
8:50 4ft 6s 4s 20 25 mph 1011.6mb 81f 80f
7:50 3.5ft 6s 4s 20 25 mph 1011mb 81f 81f
6:50 4ft 6s 4s 20 25 mph 1010.9mb 81f 81f
5:50 4ft 7s 5s 18 22 mph 1010.6mb 81f 80f
4:50 4ft 6s 5s 18 20 mph 1010.5mb 81f 81f
3:50 4ft 6s 5s 16 18 mph 1010.6mb 81f 81f
2:50 3.5ft 5s 5s 16 18 mph 1010.7mb 82f 81f
1:50 3.5ft 6s 4s 18 20 mph 1011mb 82f 81f
12:50 3.5ft 7s 5s 18 20 mph 1011.7mb 82f 81f
11:50 3.5ft 6s 5s 4
mph
1013.1mb 82f 78f
10:50 3.5ft 6s 5s 7 9 mph 1014.4mb 81f 76f
9:50 3.5ft 7s 5s 9 11 mph 1014.8mb 81f 78f
8:50 4ft 7s 4s 16 18 mph 1015.4mb 81f 76f
7:50 3.5ft 6s 4s 20 22 mph 1014.9mb 81f 77f
6:50 3.5ft 7s 4s 11 13 mph 1014.3mb 81f 76f
5:50 3.5ft 5s 4s 18 20 mph 1013.5mb 81f 76f
4:50 3ft 5s 4s 16 18 mph 1013mb 81f 80f
3:50 2.5ft 4s 4s 16 20 mph 1012.6mb 81f 80f